Time;durP1;ratioP1;P1;durP2;ratioP2;P2;SDS_P1;SDS_P2;PMS_P1;PMS_P2;Temp;Humidity;BMP_temperature;BMP_pressure;BME280_temperature;BME280_humidity;BME280_pressure;Samples;Min_cycle;Max_cycle;Signal;HPM_P1;HPM_P2
2021/08/31 00:00:21;;;;;;;1011.72;924.40;;;;;;;12.06;70.61;93458.44;5069099;28;20031;-43
2021/08/31 00:02:46;;;;;;;981.13;900.45;;;;;;;11.96;70.75;93460.31;5069655;28;20032;-43
2021/08/31 00:05:13;;;;;;;944.53;866.20;;;;;;;11.86;71.91;93459.44;5069560;28;20055;-44
2021/08/31 00:07:39;;;;;;;957.90;877.75;;;;;;;11.93;71.60;93461.44;5069395;28;20035;-43
2021/08/31 00:10:05;;;;;;;965.72;884.38;;;;;;;11.82;71.84;93463.88;5069405;28;20017;-43
2021/08/31 00:12:31;;;;;;;962.33;882.55;;;;;;;11.81;71.92;93463.13;5071761;28;20024;-44
2021/08/31 00:14:56;;;;;;;956.00;876.88;;;;;;;11.73;72.16;93465.19;5094690;28;20017;-46
2021/08/31 00:17:22;;;;;;;966.40;887.08;;;;;;;11.71;71.49;93465.00;5100638;28;20084;-45
2021/08/31 00:19:47;;;;;;;999.33;918.80;;;;;;;11.52;70.99;93461.84;5089082;28;20032;-44
2021/08/31 00:22:13;;;;;;;979.85;898.63;;;;;;;11.58;71.66;93459.63;5101968;28;20575;-44
2021/08/31 00:24:41;;;;;;;961.83;880.97;;;;;;;11.64;71.56;93473.25;5109517;28;20484;-44
2021/08/31 00:27:07;;;;;;;976.93;895.63;;;;;;;11.61;71.94;93464.03;5109618;28;20076;-44
2021/08/31 00:29:33;;;;;;;970.85;891.95;;;;;;;11.54;71.52;93464.06;5105158;28;20038;-43
2021/08/31 00:31:58;;;;;;;947.55;871.35;;;;;;;11.53;72.05;93463.31;5079449;28;20032;-43
2021/08/31 00:34:24;;;;;;;947.60;869.65;;;;;;;11.38;72.13;93463.34;5068944;28;20047;-43
2021/08/31 00:36:50;;;;;;;951.97;876.15;;;;;;;11.37;72.40;93453.56;5069127;28;20107;-43
2021/08/31 00:39:15;;;;;;;974.08;892.50;;;;;;;11.40;71.49;93469.03;5068639;28;20507;-43
2021/08/31 00:41:41;;;;;;;968.05;891.15;;;;;;;11.42;71.28;93472.00;5068250;28;20032;-43
2021/08/31 00:44:26;;;;;;;944.00;869.92;;;;;;;11.43;71.64;93476.25;5086586;28;20046;-43
2021/08/31 00:47:01;;;;;;;951.88;875.70;;;;;;;11.36;72.28;93482.50;5088408;28;20043;-45
2021/08/31 00:49:27;;;;;;;940.60;866.72;;;;;;;11.37;71.63;93478.44;5088372;28;20032;-44
2021/08/31 00:51:54;;;;;;;930.55;856.50;;;;;;;11.35;71.93;93481.75;5088759;28;20024;-43
2021/08/31 00:54:20;;;;;;;939.25;863.63;;;;;;;11.30;72.35;93482.66;5087485;28;20019;-43
2021/08/31 00:56:47;;;;;;;975.97;897.42;;;;;;;11.24;72.13;93484.88;5089114;28;20028;-44
2021/08/31 00:59:14;;;;;;;977.15;896.13;;;;;;;11.11;71.89;93479.53;5088805;28;20023;-43
2021/08/31 01:01:39;;;;;;;963.38;886.42;;;;;;;11.17;71.95;93484.91;5088813;28;20416;-43
2021/08/31 01:04:05;;;;;;;953.28;875.75;;;;;;;11.13;71.53;93493.53;5088572;28;20016;-43
2021/08/31 01:06:30;;;;;;;948.50;871.67;;;;;;;11.06;71.23;93493.53;5088084;28;20032;-43
2021/08/31 01:08:57;;;;;;;965.80;886.70;;;;;;;11.03;71.00;93494.63;5087186;28;20020;-43
2021/08/31 01:11:23;;;;;;;951.58;875.72;;;;;;;11.10;71.08;93500.19;5088269;28;20455;-43
2021/08/31 01:13:49;;;;;;;959.35;881.33;;;;;;;11.11;71.24;93506.44;5085829;28;20028;-43
2021/08/31 01:16:15;;;;;;;936.60;864.20;;;;;;;11.03;71.78;93483.56;5088319;28;20028;-41
2021/08/31 01:18:42;;;;;;;957.92;884.10;;;;;;;10.97;71.57;93497.59;5088147;28;20190;-41
2021/08/31 01:21:07;;;;;;;953.03;879.88;;;;;;;10.88;72.00;93480.78;5088471;28;20024;-41
2021/08/31 01:23:33;;;;;;;935.60;861.03;;;;;;;10.96;71.24;93504.38;5088253;28;20425;-41
2021/08/31 01:25:59;;;;;;;925.55;853.65;;;;;;;10.96;71.29;93496.09;5088135;28;20030;-41
2021/08/31 01:28:28;;;;;;;937.90;867.47;;;;;;;10.79;71.99;93500.66;5088293;28;20039;-42
2021/08/31 01:30:55;;;;;;;927.75;856.22;;;;;;;10.76;72.49;93502.50;5088036;28;20651;-42
2021/08/31 01:33:22;;;;;;;900.88;832.47;;;;;;;10.83;72.43;93501.06;5088159;28;20415;-43
2021/08/31 01:35:48;;;;;;;883.40;815.05;;;;;;;10.86;73.67;93499.94;5087785;28;20031;-42
2021/08/31 01:38:13;;;;;;;924.40;853.65;;;;;;;10.67;73.81;93486.47;5087879;28;20036;-43
2021/08/31 01:40:39;;;;;;;945.80;874.10;;;;;;;10.76;74.53;93501.78;5088066;28;20085;-43
2021/08/31 01:43:04;;;;;;;950.85;875.10;;;;;;;10.72;73.20;93496.59;5085532;28;20048;-43
2021/08/31 01:45:44;;;;;;;927.00;856.08;;;;;;;10.78;72.86;93501.97;5087821;28;20036;-43
2021/08/31 01:48:09;;;;;;;931.60;861.35;;;;;;;10.78;72.43;93502.69;5090215;28;20035;-42
2021/08/31 01:50:34;;;;;;;919.17;852.55;;;;;;;10.68;72.66;93505.25;5090392;28;20050;-42
2021/08/31 01:53:00;;;;;;;907.70;839.30;;;;;;;10.60;72.71;93507.25;5090282;28;20098;-42
2021/08/31 01:55:25;;;;;;;929.50;859.17;;;;;;;10.59;72.47;93508.53;5090797;28;20020;-43
2021/08/31 01:57:51;;;;;;;946.60;874.60;;;;;;;10.58;72.55;93512.59;5094340;28;20413;-44
2021/08/31 02:00:16;;;;;;;925.90;856.28;;;;;;;10.61;72.71;93505.94;5094278;28;20440;-43
2021/08/31 02:02:41;;;;;;;938.95;867.55;;;;;;;10.60;72.46;93517.56;5094365;28;20481;-42
2021/08/31 02:05:07;;;;;;;903.08;836.22;;;;;;;10.60;72.49;93515.53;5094204;28;20560;-42
2021/08/31 02:07:33;;;;;;;907.95;841.17;;;;;;;10.54;72.38;93520.50;5093834;28;20497;-42
2021/08/31 02:09:58;;;;;;;912.03;845.30;;;;;;;10.58;72.98;93520.13;5093873;28;20039;-42
2021/08/31 02:12:24;;;;;;;905.88;839.47;;;;;;;10.55;73.56;93519.19;5094188;28;20028;-42
2021/08/31 02:14:49;;;;;;;921.35;853.17;;;;;;;10.55;73.66;93510.16;5093936;28;20024;-42
2021/08/31 02:17:15;;;;;;;929.97;861.72;;;;;;;10.47;73.34;93512.91;5093758;28;20035;-44
2021/08/31 02:19:41;;;;;;;958.47;888.35;;;;;;;10.47;73.12;93512.91;5093931;28;20028;-45
2021/08/31 02:22:06;;;;;;;967.67;894.67;;;;;;;10.50;71.70;93514.56;5093622;28;20059;-43
2021/08/31 02:24:32;;;;;;;920.70;853.97;;;;;;;10.50;71.91;93520.09;5093528;28;20024;-42
2021/08/31 02:26:57;;;;;;;920.78;852.53;;;;;;;10.51;71.80;93513.28;5093630;28;20035;-42
2021/08/31 02:29:25;;;;;;;915.00;848.67;;;;;;;10.50;71.43;93508.31;5093474;28;20028;-42
2021/08/31 02:31:51;;;;;;;894.85;828.92;;;;;;;10.40;71.09;93497.06;5093683;28;20020;-42
2021/08/31 02:34:16;;;;;;;932.80;867.58;;;;;;;10.42;71.30;93519.31;5083389;28;20412;-42
2021/08/31 02:36:41;;;;;;;906.78;840.45;;;;;;;10.31;71.39;93516.16;5073098;28;20044;-42
2021/08/31 02:39:07;;;;;;;910.95;843.97;;;;;;;10.33;71.55;93510.84;5073370;28;20032;-42
2021/08/31 02:41:32;;;;;;;899.80;833.15;;;;;;;10.35;71.50;93519.31;5073267;28;20710;-42
2021/08/31 02:43:58;;;;;;;916.28;852.28;;;;;;;10.30;71.73;93509.16;5091014;28;20504;-42
2021/08/31 02:46:23;;;;;;;895.25;831.80;;;;;;;10.18;72.26;93508.72;5093518;28;20039;-42
2021/08/31 02:48:48;;;;;;;885.75;823.45;;;;;;;10.14;73.08;93497.31;5093367;28;20043;-42
2021/08/31 02:51:14;;;;;;;885.58;822.67;;;;;;;10.07;73.61;93509.00;5093396;28;20485;-42
2021/08/31 02:53:39;;;;;;;912.45;848.13;;;;;;;9.70;73.37;93501.28;5093176;28;20759;-42
2021/08/31 02:56:05;;;;;;;852.25;792.20;;;;;;;9.58;73.93;93502.84;5092108;28;20427;-41
2021/08/31 02:58:30;;;;;;;839.92;782.78;;;;;;;9.59;74.02;93507.06;5093064;28;20477;-44
2021/08/31 03:01:15;;;;;;;872.78;812.13;;;;;;;9.64;74.53;93500.66;5093202;28;20031;-46
2021/08/31 03:03:41;;;;;;;814.85;759.92;;;;;;;9.63;75.25;93505.47;5093087;28;20401;-47
2021/08/31 03:06:06;;;;;;;835.63;780.38;;;;;;;9.73;74.99;93502.94;5092595;28;20036;-46
2021/08/31 03:08:35;;;;;;;862.20;803.85;;;;;;;9.80;75.12;93513.28;5093105;28;20101;-46
2021/08/31 03:11:01;;;;;;;852.90;793.63;;;;;;;9.64;75.35;93517.19;5092706;28;20028;-44
2021/08/31 03:13:26;;;;;;;840.15;784.45;;;;;;;9.57;75.14;93520.66;5092600;28;20106;-45
2021/08/31 03:15:51;;;;;;;869.45;807.75;;;;;;;9.67;74.87;93521.66;5092706;28;20024;-46
2021/08/31 03:18:17;;;;;;;853.38;793.85;;;;;;;9.76;74.24;93518.41;5092768;28;20024;-44
2021/08/31 03:20:42;;;;;;;861.10;798.38;;;;;;;9.80;74.06;93518.78;5092479;28;20051;-44
2021/08/31 03:23:08;;;;;;;853.13;791.10;;;;;;;9.82;74.12;93528.00;5092635;28;20024;-46
2021/08/31 03:25:33;;;;;;;858.45;798.03;;;;;;;9.99;73.61;93519.28;5092418;28;20020;-43
2021/08/31 03:27:59;;;;;;;859.15;800.35;;;;;;;9.99;73.05;93519.28;5092671;28;20027;-45
2021/08/31 03:30:24;;;;;;;865.17;804.53;;;;;;;10.01;72.83;93522.22;5092364;28;20020;-44
2021/08/31 03:32:49;;;;;;;850.78;792.67;;;;;;;9.99;72.83;93516.50;5092293;28;20028;-43
2021/08/31 03:35:15;;;;;;;828.03;771.25;;;;;;;9.95;72.77;93518.88;5092122;28;20016;-45
2021/08/31 03:37:41;;;;;;;864.40;806.95;;;;;;;9.92;72.54;93520.69;5092354;28;20032;-44
2021/08/31 03:40:07;;;;;;;835.38;778.75;;;;;;;9.93;73.42;93518.69;5092188;28;20024;-44
2021/08/31 03:42:32;;;;;;;835.33;778.15;;;;;;;9.87;73.14;93524.34;5091998;28;20016;-46
2021/08/31 03:44:58;;;;;;;833.67;775.65;;;;;;;9.78;73.30;93526.88;5091963;28;20540;-44
2021/08/31 03:47:23;;;;;;;824.17;766.83;;;;;;;9.86;73.48;93522.13;5091858;28;20035;-45
2021/08/31 03:49:48;;;;;;;836.83;778.60;;;;;;;9.91;73.06;93524.75;5091901;28;20031;-44
2021/08/31 03:52:14;;;;;;;817.72;760.65;;;;;;;9.95;72.69;93529.91;5092160;28;20032;-43
2021/08/31 03:54:39;;;;;;;839.17;780.55;;;;;;;9.97;73.08;93532.13;5088338;28;20023;-44
2021/08/31 03:57:05;;;;;;;829.47;772.13;;;;;;;9.77;72.68;93512.34;5108280;28;20671;-45
2021/08/31 03:59:30;;;;;;;845.30;787.67;;;;;;;9.88;73.18;93538.88;5110622;28;20028;-45
2021/08/31 04:01:56;;;;;;;855.40;798.08;;;;;;;9.84;73.50;93541.25;5110652;28;20023;-43
2021/08/31 04:04:22;;;;;;;809.42;753.60;;;;;;;9.86;73.13;93549.72;5110712;27;20102;-43
2021/08/31 04:06:47;;;;;;;837.78;779.80;;;;;;;9.77;73.26;93537.16;5110479;28;20027;-45
2021/08/31 04:09:13;;;;;;;823.20;766.53;;;;;;;9.69;72.99;93550.16;5110567;28;20416;-45
2021/08/31 04:11:39;;;;;;;840.05;782.55;;;;;;;9.68;73.12;93550.69;5111205;28;20026;-44
2021/08/31 04:14:04;;;;;;;849.97;790.97;;;;;;;9.62;73.49;93553.59;5111938;28;20023;-44
2021/08/31 04:16:29;;;;;;;854.92;797.58;;;;;;;9.68;72.66;93556.94;5106041;28;20028;-45
2021/08/31 04:18:55;;;;;;;832.50;776.10;;;;;;;9.66;73.48;93564.25;5090541;28;20020;-44
2021/08/31 04:21:20;;;;;;;857.70;799.13;;;;;;;9.73;73.33;93563.59;5091577;28;20024;-44
2021/08/31 04:23:46;;;;;;;852.67;794.97;;;;;;;9.71;73.71;93561.38;5091575;28;20020;-45
2021/08/31 04:26:11;;;;;;;810.60;752.70;;;;;;;9.69;73.52;93566.69;5091529;28;20024;-45
2021/08/31 04:28:37;;;;;;;829.92;773.90;;;;;;;9.67;74.06;93566.50;5091239;28;20489;-45
2021/08/31 04:31:02;;;;;;;831.67;774.53;;;;;;;9.46;74.04;93567.78;5091434;28;20099;-45
2021/08/31 04:33:28;;;;;;;865.88;805.85;;;;;;;9.66;74.54;93564.25;5091043;28;20027;-45
2021/08/31 04:35:53;;;;;;;839.92;783.03;;;;;;;9.79;74.37;93566.94;5091392;28;20023;-45
2021/08/31 04:38:18;;;;;;;843.00;784.80;;;;;;;9.73;74.79;93564.34;5090910;28;20020;-45
2021/08/31 04:40:44;;;;;;;826.72;770.58;;;;;;;9.71;74.44;93572.41;5091431;28;20031;-44
2021/08/31 04:43:09;;;;;;;833.55;776.53;;;;;;;9.70;74.57;93559.16;5100020;28;20009;-45
2021/08/31 04:45:35;;;;;;;822.55;766.45;;;;;;;9.80;75.07;93568.44;5111102;28;20400;-47
2021/08/31 04:48:00;;;;;;;861.40;800.17;;;;;;;9.87;75.34;93570.50;5094783;28;20031;-46
2021/08/31 04:50:26;;;;;;;824.08;766.28;;;;;;;9.99;75.19;93570.94;5070614;28;20424;-48
2021/08/31 04:52:51;;;;;;;860.25;798.67;;;;;;;9.84;74.09;93575.06;5070933;28;20032;-46
2021/08/31 04:55:16;;;;;;;812.92;756.75;;;;;;;9.84;75.14;93566.81;5070711;28;20633;-45
2021/08/31 04:57:42;;;;;;;861.22;802.97;;;;;;;9.88;75.00;93569.22;5086885;28;20035;-46
2021/08/31 05:00:08;;;;;;;848.45;788.08;;;;;;;10.00;74.92;93566.91;5101818;28;20467;-45
2021/08/31 05:02:35;;;;;;;882.88;820.60;;;;;;;9.98;75.60;93572.97;5106696;28;20050;-45
2021/08/31 05:05:01;;;;;;;902.35;837.92;;;;;;;10.10;75.73;93568.63;5097294;28;20020;-44
2021/08/31 05:07:26;;;;;;;941.25;870.75;;;;;;;10.16;77.08;93562.97;5090798;28;20027;-43
2021/08/31 05:09:52;;;;;;;940.35;869.13;;;;;;;10.12;76.87;93568.84;5090720;28;20016;-43
2021/08/31 05:12:17;;;;;;;942.35;869.58;;;;;;;10.13;77.23;93562.06;5090264;28;20501;-45
2021/08/31 05:14:43;;;;;;;1030.05;952.58;;;;;;;10.21;77.33;93557.31;5090654;28;20031;-44
2021/08/31 05:17:08;;;;;;;961.35;887.58;;;;;;;10.51;76.71;93560.22;5090238;28;20040;-44
2021/08/31 05:19:34;;;;;;;957.85;883.60;;;;;;;10.61;76.79;93557.69;5089875;28;20027;-44
2021/08/31 05:22:00;;;;;;;964.70;887.50;;;;;;;10.68;77.15;93556.97;5090301;28;20031;-46
2021/08/31 05:24:28;;;;;;;948.67;871.13;;;;;;;10.85;76.70;93557.19;5090633;28;20103;-43
2021/08/31 05:26:53;;;;;;;967.15;889.78;;;;;;;10.99;76.72;93549.50;5090210;28;20573;-44
2021/08/31 05:29:18;;;;;;;958.03;879.88;;;;;;;11.12;76.94;93547.34;5090024;28;20032;-45
2021/08/31 05:31:45;;;;;;;954.75;880.15;;;;;;;11.12;77.00;93543.84;5091646;28;20019;-45
2021/08/31 05:34:11;;;;;;;983.25;902.33;;;;;;;11.23;77.12;93546.25;5099996;28;20082;-47
2021/08/31 05:36:36;;;;;;;1014.30;928.60;;;;;;;11.30;77.22;93540.00;5090463;28;20035;-47
2021/08/31 05:39:05;;;;;;;1033.57;946.72;;;;;;;11.25;77.73;93525.06;5089997;28;20028;-44
2021/08/31 05:41:30;;;;;;;1040.82;955.13;;;;;;;11.45;77.95;93545.53;5090364;28;20027;-44
2021/08/31 05:43:56;;;;;;;1046.72;955.50;;;;;;;11.51;78.09;93532.25;5094180;28;20416;-43
2021/08/31 05:46:21;;;;;;;1012.78;926.63;;;;;;;11.67;77.22;93522.72;5092612;28;20020;-44
2021/08/31 05:48:47;;;;;;;992.20;904.80;;;;;;;11.83;77.31;93526.19;5090301;28;20413;-44
2021/08/31 05:51:13;;;;;;;1018.60;928.75;;;;;;;11.94;77.69;93529.31;5090316;28;20401;-48
2021/08/31 05:53:39;;;;;;;974.83;883.83;;;;;;;11.94;76.92;93523.78;5089706;28;20035;-44
2021/08/31 05:56:04;;;;;;;961.75;873.20;;;;;;;12.01;76.90;93511.97;5090295;28;20024;-43
2021/08/31 05:58:30;;;;;;;970.72;880.97;;;;;;;12.05;76.64;93508.81;5090245;28;20510;-46
2021/08/31 06:00:55;;;;;;;995.15;900.33;;;;;;;12.27;74.53;93524.63;5090178;28;20520;-45
2021/08/31 06:03:21;;;;;;;982.95;892.85;;;;;;;12.32;76.08;93526.47;5089843;28;20024;-44
2021/08/31 06:05:47;;;;;;;984.13;891.47;;;;;;;12.43;76.83;93533.63;5090026;28;20020;-44
2021/08/31 06:08:12;;;;;;;1001.00;907.53;;;;;;;12.55;76.27;93529.16;5090122;28;20047;-45
2021/08/31 06:10:41;;;;;;;1016.28;917.63;;;;;;;12.55;75.72;93531.91;5070567;28;20032;-44
2021/08/31 06:13:06;;;;;;;1005.20;906.88;;;;;;;12.64;75.61;93542.41;5069640;28;20029;-45
2021/08/31 06:15:32;;;;;;;975.10;878.28;;;;;;;12.83;76.30;93537.16;5069391;28;20028;-45
2021/08/31 06:17:57;;;;;;;1040.93;934.78;;;;;;;12.97;75.09;93540.41;5069636;28;20020;-44
2021/08/31 06:20:23;;;;;;;1004.80;907.78;;;;;;;12.99;74.78;93543.38;5069864;28;20021;-44
2021/08/31 06:22:48;;;;;;;1026.38;927.00;;;;;;;12.99;73.92;93543.38;5069878;28;20028;-45
2021/08/31 06:25:14;;;;;;;1024.25;923.50;;;;;;;13.06;73.97;93543.34;5069461;28;20031;-44
2021/08/31 06:27:39;;;;;;;1028.18;917.90;;;;;;;13.11;74.70;93545.16;5069641;28;20028;-44
2021/08/31 06:30:05;;;;;;;1036.60;925.70;;;;;;;13.31;74.27;93540.63;5069780;28;20012;-43
2021/08/31 06:32:31;;;;;;;1045.97;930.17;;;;;;;13.46;74.25;93548.84;5069638;28;20085;-45
2021/08/31 06:34:56;;;;;;;1045.18;934.10;;;;;;;13.56;74.18;93544.13;5094730;28;20019;-44
2021/08/31 06:37:22;;;;;;;1097.82;977.30;;;;;;;13.72;74.18;93539.22;5108864;28;20031;-45
2021/08/31 06:39:47;;;;;;;1162.32;994.50;;;;;;;13.88;73.79;93535.00;5095746;28;20020;-45
2021/08/31 06:42:13;;;;;;;1137.82;965.08;;;;;;;13.95;73.59;93528.63;5110295;28;20032;-44
2021/08/31 06:44:38;;;;;;;1123.05;996.13;;;;;;;14.24;72.81;93538.75;5092970;28;20060;-46
2021/08/31 06:47:05;;;;;;;1074.15;958.35;;;;;;;14.48;70.35;93528.16;5093044;28;20031;-44
2021/08/31 06:49:31;;;;;;;1044.90;939.40;;;;;;;14.80;67.72;93542.59;5093266;28;20022;-44
2021/08/31 06:51:57;;;;;;;1047.53;942.63;;;;;;;15.09;67.78;93537.22;5093335;28;20095;-44
2021/08/31 06:54:22;;;;;;;1036.60;945.08;;;;;;;15.70;65.69;93531.56;5092971;28;20571;-44
2021/08/31 06:56:48;;;;;;;1024.85;934.03;;;;;;;17.15;62.04;93536.72;5093326;28;20032;-45
2021/08/31 06:59:13;;;;;;;995.80;913.10;;;;;;;18.77;57.43;93535.28;5092970;28;20511;-45
2021/08/31 07:01:38;;;;;;;947.08;878.97;;;;;;;19.44;54.77;93537.50;5092822;28;20020;-46
2021/08/31 07:04:04;;;;;;;971.75;896.63;;;;;;;20.29;53.73;93532.22;5092785;28;20016;-44
2021/08/31 07:06:30;;;;;;;718.25;675.15;;;;;;;20.38;48.39;93539.75;5092735;28;20030;-45
2021/08/31 07:08:55;;;;;;;749.53;705.38;;;;;;;20.53;50.31;93528.03;5093029;28;20020;-45
2021/08/31 07:11:21;;;;;;;717.00;675.33;;;;;;;20.37;48.53;93533.44;5092647;28;20554;-47
2021/08/31 07:13:46;;;;;;;702.80;662.47;;;;;;;20.48;48.29;93526.34;5091410;28;20110;-44
2021/08/31 07:16:12;;;;;;;710.08;667.28;;;;;;;20.63;49.70;93539.84;5092880;28;20032;-44
2021/08/31 07:18:38;;;;;;;732.60;689.58;;;;;;;20.33;49.08;93532.47;5096270;28;20489;-43
2021/08/31 07:21:03;;;;;;;735.15;691.05;;;;;;;20.25;49.83;93532.69;5111652;28;20031;-46
2021/08/31 07:23:28;;;;;;;738.35;694.15;;;;;;;20.56;50.88;93532.41;5109508;28;20028;-48
2021/08/31 07:25:54;;;;;;;767.38;720.92;;;;;;;21.12;48.94;93532.16;5092421;28;20019;-46
2021/08/31 07:28:20;;;;;;;640.40;605.17;;;;;;;23.18;43.37;93524.06;5092672;28;20035;-46
2021/08/31 07:30:45;;;;;;;115.25;109.47;;;;;;;25.51;38.78;93531.00;5092743;28;20465;-47
2021/08/31 07:33:11;;;;;;;5.28;2.80;;;;;;;27.55;34.18;93536.31;5092409;28;20028;-45
2021/08/31 07:35:37;;;;;;;3.85;3.08;;;;;;;28.98;32.57;93517.88;5105250;28;20556;-48
2021/08/31 07:38:04;;;;;;;3.80;3.15;;;;;;;30.43;29.83;93533.56;5112520;28;20024;-46
2021/08/31 07:40:30;;;;;;;3.20;2.90;;;;;;;29.53;29.63;93534.25;5112855;28;20030;-45
2021/08/31 07:42:55;;;;;;;4.55;2.65;;;;;;;31.27;27.68;93534.53;5104908;28;20425;-45
2021/08/31 07:45:21;;;;;;;5.75;2.70;;;;;;;31.82;26.55;93539.06;5091882;28;20028;-46
2021/08/31 07:47:47;;;;;;;2.90;2.70;;;;;;;32.98;24.14;93542.19;5103497;28;20472;-45
2021/08/31 07:50:13;;;;;;;2.80;2.58;;;;;;;33.33;22.84;93541.16;5110952;27;20096;-47
2021/08/31 07:52:39;;;;;;;5.07;2.40;;;;;;;33.50;22.14;93542.03;5082525;28;20451;-45
2021/08/31 07:55:06;;;;;;;2.55;2.35;;;;;;;34.80;19.36;93541.63;5084990;28;20477;-46
2021/08/31 07:57:31;;;;;;;2.50;2.30;;;;;;;35.27;18.39;93540.38;5084102;28;20404;-47
2021/08/31 07:59:57;;;;;;;2.58;2.13;;;;;;;35.29;18.79;93537.53;5081153;28;20028;-46
2021/08/31 08:02:23;;;;;;;2.55;2.35;;;;;;;36.07;18.91;93533.34;5082279;28;20024;-45
2021/08/31 08:04:48;;;;;;;2.70;2.50;;;;;;;37.17;18.52;93529.50;5082231;28;20023;-45
2021/08/31 08:07:14;;;;;;;2.90;2.60;;;;;;;37.55;18.05;93540.16;5080816;28;20066;-45
2021/08/31 08:09:39;;;;;;;2.55;2.20;;;;;;;37.18;19.17;93531.69;5081655;28;20031;-44
2021/08/31 08:12:05;;;;;;;3.03;2.72;;;;;;;36.57;19.80;93535.47;5082165;28;20016;-46
2021/08/31 08:14:31;;;;;;;5.15;2.45;;;;;;;37.25;18.15;93529.50;5082196;28;20019;-45
2021/08/31 08:16:56;;;;;;;2.40;2.20;;;;;;;37.77;19.04;93525.59;5083465;28;20561;-45
2021/08/31 08:19:22;;;;;;;3.50;2.75;;;;;;;35.99;19.06;93527.63;5089990;28;20020;-44
2021/08/31 08:21:47;;;;;;;2.80;2.50;;;;;;;35.88;20.06;93526.16;5078251;28;20021;-44
2021/08/31 08:24:12;;;;;;;3.08;2.78;;;;;;;35.65;19.49;93529.00;5079866;28;20481;-45
2021/08/31 08:26:38;;;;;;;2.95;2.38;;;;;;;36.10;18.84;93526.91;5079188;28;20513;-46
2021/08/31 08:29:05;;;;;;;3.35;2.20;;;;;;;36.71;18.60;93523.94;5078388;28;20024;-45
2021/08/31 08:31:33;;;;;;;3.08;2.50;;;;;;;34.80;21.37;93530.88;5080028;28;20027;-43
2021/08/31 08:33:59;;;;;;;;;;;;;;;36.05;18.44;93525.44;5075072;28;20024;-45
2021/08/31 08:36:24;;;;;;;3.40;2.47;;;;;;;36.67;17.18;93521.78;5079533;28;19923;-45
2021/08/31 08:38:50;;;;;;;2.90;2.47;;;;;;;37.42;17.07;93522.22;5083243;28;20023;-46
2021/08/31 08:41:15;;;;;;;3.63;2.50;;;;;;;38.02;17.36;93511.72;5073972;28;20024;-43
2021/08/31 08:43:41;;;;;;;2.50;2.30;;;;;;;37.89;17.76;93516.88;5079548;28;20028;-46
2021/08/31 08:46:07;;;;;;;5.55;2.83;;;;;;;38.94;16.74;93510.84;5081245;28;20448;-44
2021/08/31 08:48:33;;;;;;;7.22;2.90;;;;;;;39.98;16.22;93513.78;5076602;28;20023;-44
2021/08/31 08:51:01;;;;;;;4.18;2.65;;;;;;;40.50;14.75;93518.72;5077361;28;20496;-43
2021/08/31 08:53:27;;;;;;;;;;;;;;;41.05;14.26;93512.63;5077732;28;20028;-41
2021/08/31 08:55:53;;;;;;;2.70;2.50;;;;;;;41.01;13.81;93506.91;5076417;28;19970;-41
2021/08/31 08:58:18;;;;;;;2.55;2.30;;;;;;;39.68;14.77;93505.59;5078018;28;20433;-42
2021/08/31 09:00:53;;;;;;;3.03;2.72;;;;;;;39.68;15.81;93512.06;5078437;28;20023;-44
2021/08/31 09:03:23;;;;;;;2.80;2.47;;;;;;;39.27;15.57;93509.00;5075209;28;20074;-41
2021/08/31 09:06:02;;;;;;;3.28;2.70;;;;;;;35.99;17.45;93501.75;5071528;28;20078;-44
2021/08/31 09:08:28;;;;;;;3.35;2.75;;;;;;;34.01;20.60;93497.41;5090291;28;20028;-43
2021/08/31 09:10:53;;;;;;;3.45;3.10;;;;;;;33.38;22.33;93504.69;5088708;28;20027;-44
2021/08/31 09:13:20;;;;;;;3.00;2.80;;;;;;;34.46;20.99;93501.28;5089229;28;20540;-44
2021/08/31 09:15:46;;;;;;;4.15;2.97;;;;;;;34.54;21.28;93493.47;5089320;28;20095;-43
2021/08/31 09:18:16;;;;;;;3.65;2.53;;;;;;;33.57;19.58;93492.00;5088767;28;20085;-45
2021/08/31 09:20:54;;;;;;;3.13;2.83;;;;;;;34.32;20.45;93499.78;5088530;28;20509;-45
2021/08/31 09:23:23;;;;;;;3.10;2.55;;;;;;;35.90;18.49;93495.25;5089300;28;20459;-43
2021/08/31 09:25:51;;;;;;;2.60;2.35;;;;;;;35.87;17.13;93485.19;5090648;28;20028;-44
2021/08/31 09:28:28;;;;;;;2.50;2.30;;;;;;;35.72;17.68;93495.25;5090584;28;20092;-44
2021/08/31 09:31:11;;;;;;;2.45;2.20;;;;;;;32.40;19.11;93493.53;5090391;28;20085;-45
2021/08/31 09:33:39;;;;;;;3.15;2.42;;;;;;;33.44;19.64;93488.31;5090551;28;20208;-44
2021/08/31 09:36:05;;;;;;;2.75;2.40;;;;;;;32.69;21.18;93492.50;5090171;28;20485;-44
2021/08/31 09:38:50;;;;;;;2.78;2.33;;;;;;;33.21;19.68;93480.94;5090216;28;20035;-45
2021/08/31 09:41:28;;;;;;;4.95;2.08;;;;;;;32.97;18.87;93479.94;5090533;28;20028;-43
2021/08/31 09:43:54;;;;;;;2.40;2.20;;;;;;;31.84;20.06;93489.84;5089566;28;20035;-43
2021/08/31 09:46:20;;;;;;;2.63;2.40;;;;;;;32.63;22.66;93478.13;5090354;28;20032;-43
2021/08/31 09:48:45;;;;;;;2.78;2.33;;;;;;;34.27;20.88;93481.09;5090109;28;20386;-43
2021/08/31 09:51:12;;;;;;;3.55;2.70;;;;;;;35.60;19.10;93473.00;5089852;28;20107;-43
2021/08/31 09:53:38;;;;;;;2.80;2.45;;;;;;;36.74;17.58;93471.41;5090003;28;20026;-44
2021/08/31 09:56:10;;;;;;;3.42;2.08;;;;;;;37.88;16.38;93469.34;5088734;28;20024;-45
2021/08/31 09:58:38;;;;;;;2.33;1.60;;;;;;;38.60;15.23;93468.63;5090319;28;20028;-45
2021/08/31 10:01:04;;;;;;;2.90;1.77;;;;;;;38.99;14.74;93476.84;5089950;28;20515;-45
2021/08/31 10:03:30;;;;;;;2.58;1.60;;;;;;;39.22;14.92;93475.84;5090159;28;20028;-45
2021/08/31 10:05:58;;;;;;;1.98;1.77;;;;;;;39.27;13.91;93470.72;5088779;28;20565;-44
2021/08/31 10:08:24;;;;;;;1.85;1.75;;;;;;;39.60;14.49;93468.09;5089895;28;20020;-44
2021/08/31 10:10:52;;;;;;;2.00;1.80;;;;;;;40.01;14.20;93463.13;5090226;28;20572;-46
2021/08/31 10:13:22;;;;;;;1.63;1.53;;;;;;;39.32;14.58;93467.06;5089932;28;20498;-44
2021/08/31 10:15:53;;;;;;;1.98;1.77;;;;;;;39.34;14.18;93469.91;5090155;28;20451;-45
2021/08/31 10:18:22;;;;;;;3.67;1.80;;;;;;;39.13;15.08;93468.75;5093924;28;20089;-45
2021/08/31 10:21:08;;;;;;;2.95;1.80;;;;;;;39.38;14.34;93457.56;5100540;28;20023;-46
2021/08/31 10:23:38;;;;;;;2.28;2.08;;;;;;;39.62;14.31;93460.13;5106282;28;20035;-43
2021/08/31 10:26:22;;;;;;;2.33;1.73;;;;;;;39.88;14.86;93450.31;5089594;28;20019;-45
2021/08/31 10:28:49;;;;;;;1.95;1.75;;;;;;;39.94;14.09;93459.59;5089930;28;20493;-46
2021/08/31 10:31:28;;;;;;;1.73;1.55;;;;;;;40.08;13.87;93439.16;5093539;28;20572;-47
2021/08/31 10:33:54;;;;;;;3.10;1.83;;;;;;;39.91;14.42;93455.34;5090863;28;20024;-44
2021/08/31 10:36:34;;;;;;;2.10;1.90;;;;;;;38.31;14.83;93450.22;5089269;28;20031;-44
2021/08/31 10:38:59;;;;;;;3.90;1.83;;;;;;;38.38;15.20;93430.69;5093371;28;20042;-45
2021/08/31 10:41:43;;;;;;;2.03;1.92;;;;;;;38.91;15.61;93443.03;5093585;28;20016;-45
2021/08/31 10:44:32;;;;;;;1.77;1.67;;;;;;;38.88;15.39;93449.59;5092809;28;20035;-44
2021/08/31 10:46:57;;;;;;;4.72;1.80;;;;;;;38.97;15.49;93442.94;5093068;28;20062;-48
2021/08/31 10:49:23;;;;;;;1.90;1.73;;;;;;;38.98;14.54;93447.28;5093167;28;20036;-48
2021/08/31 10:52:06;;;;;;;5.60;2.22;;;;;;;39.48;15.86;93439.38;5093075;28;20026;-45
2021/08/31 10:54:48;;;;;;;2.13;1.92;;;;;;;37.04;17.53;93436.75;5093409;28;20023;-46
2021/08/31 10:57:55;;;;;;;2.78;2.15;;;;;;;37.71;15.82;93425.47;5093303;28;20107;-46
2021/08/31 11:00:20;;;;;;;2.17;1.98;;;;;;;38.04;15.28;93449.00;5050307;28;20033;-47
2021/08/31 11:02:45;;;;;;;5.03;1.95;;;;;;;37.46;15.64;93435.06;5050390;28;20028;-46
2021/08/31 11:05:24;;;;;;;6.00;2.85;;;;;;;36.24;15.92;93437.75;5070488;28;20810;-46
2021/08/31 11:08:09;;;;;;;3.95;1.90;;;;;;;35.92;17.69;93440.66;5092988;28;20039;-44
2021/08/31 11:10:37;;;;;;;2.40;2.20;;;;;;;36.25;17.95;93449.97;5092710;28;20040;-46